sensor_id;sensor_type;location;lat;lon;timestamp;pressure;altitude;pressure_sealevel;temperature;humidity
76086;BME280;64791;0.000;0.000;2023-10-19T00:01:09;93895.28;;;6.64;68.64
76086;BME280;64791;0.000;0.000;2023-10-19T00:03:35;93882.72;;;6.55;68.71
76086;BME280;64791;0.000;0.000;2023-10-19T00:06:01;93879.75;;;6.53;68.44
76086;BME280;64791;0.000;0.000;2023-10-19T00:08:27;93884.72;;;6.55;68.61
76086;BME280;64791;0.000;0.000;2023-10-19T00:11:01;93883.22;;;6.54;68.03
76086;BME280;64791;0.000;0.000;2023-10-19T00:13:27;93883.16;;;6.59;67.99
76086;BME280;64791;0.000;0.000;2023-10-19T00:15:55;93874.06;;;6.51;68.32
76086;BME280;64791;0.000;0.000;2023-10-19T00:18:23;93886.06;;;6.48;68.76
76086;BME280;64791;0.000;0.000;2023-10-19T00:20:52;93880.22;;;6.39;69.18
76086;BME280;64791;0.000;0.000;2023-10-19T00:23:23;93881.34;;;6.30;69.57
76086;BME280;64791;0.000;0.000;2023-10-19T00:25:58;93875.91;;;6.43;68.98
76086;BME280;64791;0.000;0.000;2023-10-19T00:28:24;93878.88;;;6.45;68.62
76086;BME280;64791;0.000;0.000;2023-10-19T00:30:53;93870.75;;;6.40;69.02
76086;BME280;64791;0.000;0.000;2023-10-19T00:33:25;93869.41;;;6.46;68.34
76086;BME280;64791;0.000;0.000;2023-10-19T00:35:54;93866.50;;;6.39;68.39
76086;BME280;64791;0.000;0.000;2023-10-19T00:38:24;93860.16;;;6.31;69.16
76086;BME280;64791;0.000;0.000;2023-10-19T00:40:55;93858.88;;;6.19;69.66
76086;BME280;64791;0.000;0.000;2023-10-19T00:43:29;93859.88;;;6.16;69.31
76086;BME280;64791;0.000;0.000;2023-10-19T00:45:59;93859.69;;;6.14;69.60
76086;BME280;64791;0.000;0.000;2023-10-19T00:48:27;93857.47;;;6.12;69.60
76086;BME280;64791;0.000;0.000;2023-10-19T00:50:53;93847.47;;;6.15;69.77
76086;BME280;64791;0.000;0.000;2023-10-19T00:53:36;93850.00;;;6.13;69.53
76086;BME280;64791;0.000;0.000;2023-10-19T00:56:03;93848.50;;;6.12;69.28
76086;BME280;64791;0.000;0.000;2023-10-19T00:58:35;93853.31;;;6.06;70.32
76086;BME280;64791;0.000;0.000;2023-10-19T01:01:02;93847.84;;;6.06;70.19
76086;BME280;64791;0.000;0.000;2023-10-19T01:03:31;93841.63;;;6.05;69.87
76086;BME280;64791;0.000;0.000;2023-10-19T01:06:01;93844.31;;;6.11;69.70
76086;BME280;64791;0.000;0.000;2023-10-19T01:08:30;93847.47;;;6.15;69.63
76086;BME280;64791;0.000;0.000;2023-10-19T01:11:09;93847.25;;;6.13;69.35
76086;BME280;64791;0.000;0.000;2023-10-19T01:13:38;93843.47;;;6.16;68.94
76086;BME280;64791;0.000;0.000;2023-10-19T01:16:04;93853.97;;;6.12;69.30
76086;BME280;64791;0.000;0.000;2023-10-19T01:18:30;93844.91;;;6.04;69.31
76086;BME280;64791;0.000;0.000;2023-10-19T01:20:59;93843.94;;;6.01;69.37
76086;BME280;64791;0.000;0.000;2023-10-19T01:23:27;93848.75;;;5.95;69.84
76086;BME280;64791;0.000;0.000;2023-10-19T01:25:54;93856.66;;;5.98;70.04
76086;BME280;64791;0.000;0.000;2023-10-19T01:28:24;93857.63;;;6.01;70.73
76086;BME280;64791;0.000;0.000;2023-10-19T01:31:10;93861.31;;;6.04;71.35
76086;BME280;64791;0.000;0.000;2023-10-19T01:33:45;93858.59;;;6.04;71.98
76086;BME280;64791;0.000;0.000;2023-10-19T01:36:11;93854.88;;;6.01;71.86
76086;BME280;64791;0.000;0.000;2023-10-19T01:38:39;93848.94;;;6.16;71.13
76086;BME280;64791;0.000;0.000;2023-10-19T01:41:06;93849.16;;;6.18;71.21
76086;BME280;64791;0.000;0.000;2023-10-19T01:43:52;93849.66;;;6.35;71.10
76086;BME280;64791;0.000;0.000;2023-10-19T01:46:19;93848.66;;;6.19;71.97
76086;BME280;64791;0.000;0.000;2023-10-19T01:49:11;93850.88;;;6.21;72.00
76086;BME280;64791;0.000;0.000;2023-10-19T01:51:37;93856.94;;;6.14;71.68
76086;BME280;64791;0.000;0.000;2023-10-19T01:54:08;93845.56;;;6.10;71.89
76086;BME280;64791;0.000;0.000;2023-10-19T01:56:35;93851.25;;;6.12;71.51
76086;BME280;64791;0.000;0.000;2023-10-19T01:59:02;93846.56;;;6.07;71.14
76086;BME280;64791;0.000;0.000;2023-10-19T02:01:30;93847.69;;;6.17;70.20
76086;BME280;64791;0.000;0.000;2023-10-19T02:04:01;93848.13;;;6.21;70.18
76086;BME280;64791;0.000;0.000;2023-10-19T02:06:32;93844.56;;;6.26;69.64
76086;BME280;64791;0.000;0.000;2023-10-19T02:09:03;93842.28;;;6.30;69.03
76086;BME280;64791;0.000;0.000;2023-10-19T02:11:48;93844.53;;;6.13;69.15
76086;BME280;64791;0.000;0.000;2023-10-19T02:14:15;93847.69;;;6.17;69.35
76086;BME280;64791;0.000;0.000;2023-10-19T02:19:09;93838.81;;;6.11;68.60
76086;BME280;64791;0.000;0.000;2023-10-19T02:21:35;93846.88;;;6.03;68.45
76086;BME280;64791;0.000;0.000;2023-10-19T02:24:06;93838.44;;;6.01;68.54
76086;BME280;64791;0.000;0.000;2023-10-19T02:26:32;93841.66;;;5.86;69.41
76086;BME280;64791;0.000;0.000;2023-10-19T02:28:59;93847.19;;;6.00;68.58
76086;BME280;64791;0.000;0.000;2023-10-19T02:31:25;93854.13;;;6.01;68.71
76086;BME280;64791;0.000;0.000;2023-10-19T02:33:53;93864.94;;;5.93;68.12
76086;BME280;64791;0.000;0.000;2023-10-19T02:36:30;93868.50;;;5.88;68.06
76086;BME280;64791;0.000;0.000;2023-10-19T02:38:56;93873.44;;;5.89;67.53
76086;BME280;64791;0.000;0.000;2023-10-19T02:41:27;93871.44;;;5.90;68.04
76086;BME280;64791;0.000;0.000;2023-10-19T02:43:53;93875.28;;;5.81;67.77
76086;BME280;64791;0.000;0.000;2023-10-19T02:46:28;93876.78;;;5.82;67.96
76086;BME280;64791;0.000;0.000;2023-10-19T02:48:54;93860.50;;;5.90;67.46
76086;BME280;64791;0.000;0.000;2023-10-19T02:51:20;93852.16;;;5.82;66.87
76086;BME280;64791;0.000;0.000;2023-10-19T02:53:45;93851.63;;;5.84;67.12
76086;BME280;64791;0.000;0.000;2023-10-19T02:56:12;93841.94;;;5.83;66.50
76086;BME280;64791;0.000;0.000;2023-10-19T02:58:41;93857.19;;;5.78;67.14
76086;BME280;64791;0.000;0.000;2023-10-19T03:01:15;93856.59;;;5.67;67.24
76086;BME280;64791;0.000;0.000;2023-10-19T03:03:44;93855.84;;;5.66;67.36
76086;BME280;64791;0.000;0.000;2023-10-19T03:06:11;93858.44;;;5.59;67.09
76086;BME280;64791;0.000;0.000;2023-10-19T03:08:38;93858.69;;;5.55;66.58
76086;BME280;64791;0.000;0.000;2023-10-19T03:11:04;93860.50;;;5.53;67.06
76086;BME280;64791;0.000;0.000;2023-10-19T03:13:30;93853.09;;;5.48;67.47
76086;BME280;64791;0.000;0.000;2023-10-19T03:15:59;93855.88;;;5.42;67.92
76086;BME280;64791;0.000;0.000;2023-10-19T03:18:33;93851.66;;;5.41;67.88
76086;BME280;64791;0.000;0.000;2023-10-19T03:21:00;93860.09;;;5.43;67.44
76086;BME280;64791;0.000;0.000;2023-10-19T03:23:27;93860.91;;;5.38;67.33
76086;BME280;64791;0.000;0.000;2023-10-19T03:25:54;93847.97;;;5.39;66.97
76086;BME280;64791;0.000;0.000;2023-10-19T03:28:39;93857.44;;;5.38;67.42
76086;BME280;64791;0.000;0.000;2023-10-19T03:31:06;93842.63;;;5.28;67.70
76086;BME280;64791;0.000;0.000;2023-10-19T03:33:33;93850.34;;;5.29;67.45
76086;BME280;64791;0.000;0.000;2023-10-19T03:36:02;93848.75;;;5.34;67.14
76086;BME280;64791;0.000;0.000;2023-10-19T03:38:29;93847.88;;;5.26;67.42
76086;BME280;64791;0.000;0.000;2023-10-19T03:41:00;93838.25;;;5.19;67.51
76086;BME280;64791;0.000;0.000;2023-10-19T03:43:33;93842.28;;;5.12;67.97
76086;BME280;64791;0.000;0.000;2023-10-19T03:45:58;93837.78;;;5.15;67.61
76086;BME280;64791;0.000;0.000;2023-10-19T03:48:29;93834.16;;;5.07;68.31
76086;BME280;64791;0.000;0.000;2023-10-19T03:51:01;93833.06;;;5.15;69.42
76086;BME280;64791;0.000;0.000;2023-10-19T03:53:28;93827.72;;;5.04;70.98
76086;BME280;64791;0.000;0.000;2023-10-19T03:55:55;93828.97;;;5.03;70.82
76086;BME280;64791;0.000;0.000;2023-10-19T03:58:21;93823.81;;;5.00;71.21
76086;BME280;64791;0.000;0.000;2023-10-19T04:00:47;93819.88;;;4.95;71.36
76086;BME280;64791;0.000;0.000;2023-10-19T04:03:16;93827.06;;;4.98;71.60
76086;BME280;64791;0.000;0.000;2023-10-19T04:05:43;93826.19;;;5.09;71.48
76086;BME280;64791;0.000;0.000;2023-10-19T04:08:12;93825.19;;;5.12;71.00
76086;BME280;64791;0.000;0.000;2023-10-19T04:10:40;93821.25;;;5.07;70.54
76086;BME280;64791;0.000;0.000;2023-10-19T04:13:10;93829.66;;;5.09;70.83
76086;BME280;64791;0.000;0.000;2023-10-19T04:15:36;93823.22;;;5.07;70.41
76086;BME280;64791;0.000;0.000;2023-10-19T04:18:02;93824.88;;;5.15;70.29
76086;BME280;64791;0.000;0.000;2023-10-19T04:20:34;93822.38;;;5.17;69.82
76086;BME280;64791;0.000;0.000;2023-10-19T04:23:09;93819.72;;;5.12;69.38
76086;BME280;64791;0.000;0.000;2023-10-19T04:25:40;93818.44;;;5.13;69.81
76086;BME280;64791;0.000;0.000;2023-10-19T04:28:06;93814.69;;;5.16;69.23
76086;BME280;64791;0.000;0.000;2023-10-19T04:30:33;93814.47;;;5.14;68.87
76086;BME280;64791;0.000;0.000;2023-10-19T04:33:02;93813.72;;;5.13;68.61
76086;BME280;64791;0.000;0.000;2023-10-19T04:35:28;93819.19;;;5.13;69.01
76086;BME280;64791;0.000;0.000;2023-10-19T04:37:59;93822.50;;;5.06;69.94
76086;BME280;64791;0.000;0.000;2023-10-19T04:40:26;93822.56;;;5.01;70.75
76086;BME280;64791;0.000;0.000;2023-10-19T04:42:52;93822.16;;;4.91;71.42
76086;BME280;64791;0.000;0.000;2023-10-19T04:45:19;93821.13;;;4.94;71.09
76086;BME280;64791;0.000;0.000;2023-10-19T04:47:45;93819.53;;;5.04;70.73
76086;BME280;64791;0.000;0.000;2023-10-19T04:50:12;93814.97;;;5.12;70.58
76086;BME280;64791;0.000;0.000;2023-10-19T04:52:38;93814.09;;;5.23;70.13
76086;BME280;64791;0.000;0.000;2023-10-19T04:55:04;93815.50;;;5.30;69.76
76086;BME280;64791;0.000;0.000;2023-10-19T04:57:30;93816.97;;;5.12;69.44
76086;BME280;64791;0.000;0.000;2023-10-19T04:59:56;93811.50;;;5.12;69.54
76086;BME280;64791;0.000;0.000;2023-10-19T05:02:23;93817.44;;;4.92;70.27
76086;BME280;64791;0.000;0.000;2023-10-19T05:04:49;93821.97;;;5.08;70.34
76086;BME280;64791;0.000;0.000;2023-10-19T05:07:15;93821.63;;;4.93;71.80
76086;BME280;64791;0.000;0.000;2023-10-19T05:09:45;93821.69;;;4.87;71.79
76086;BME280;64791;0.000;0.000;2023-10-19T05:12:10;93817.72;;;4.88;71.66
76086;BME280;64791;0.000;0.000;2023-10-19T05:14:37;93812.94;;;4.94;71.35
76086;BME280;64791;0.000;0.000;2023-10-19T05:17:03;93809.38;;;4.99;71.29
76086;BME280;64791;0.000;0.000;2023-10-19T05:19:31;93804.31;;;5.09;71.19
76086;BME280;64791;0.000;0.000;2023-10-19T05:21:57;93822.50;;;5.06;71.57
76086;BME280;64791;0.000;0.000;2023-10-19T05:24:23;93817.09;;;5.01;72.46
76086;BME280;64791;0.000;0.000;2023-10-19T05:26:48;93817.19;;;5.14;71.80
76086;BME280;64791;0.000;0.000;2023-10-19T05:29:15;93815.94;;;5.15;71.49
76086;BME280;64791;0.000;0.000;2023-10-19T05:31:41;93821.91;;;5.13;72.17
76086;BME280;64791;0.000;0.000;2023-10-19T05:34:06;93825.63;;;5.16;72.66
76086;BME280;64791;0.000;0.000;2023-10-19T05:36:33;93820.59;;;5.20;72.13
76086;BME280;64791;0.000;0.000;2023-10-19T05:38:59;93822.66;;;5.14;73.81
76086;BME280;64791;0.000;0.000;2023-10-19T05:41:24;93821.50;;;5.28;73.07
76086;BME280;64791;0.000;0.000;2023-10-19T05:43:50;93825.34;;;5.38;72.80
76086;BME280;64791;0.000;0.000;2023-10-19T05:46:16;93816.34;;;5.43;72.52
76086;BME280;64791;0.000;0.000;2023-10-19T05:48:45;93813.53;;;5.49;72.86
76086;BME280;64791;0.000;0.000;2023-10-19T05:51:10;93816.22;;;5.54;72.65
76086;BME280;64791;0.000;0.000;2023-10-19T05:53:36;93825.81;;;5.61;72.63
76086;BME280;64791;0.000;0.000;2023-10-19T05:56:02;93821.38;;;5.58;73.23
76086;BME280;64791;0.000;0.000;2023-10-19T05:58:28;93824.84;;;5.58;73.87
76086;BME280;64791;0.000;0.000;2023-10-19T06:00:57;93823.59;;;5.59;74.50
76086;BME280;64791;0.000;0.000;2023-10-19T06:03:23;93825.97;;;5.68;74.95
76086;BME280;64791;0.000;0.000;2023-10-19T06:05:49;93840.31;;;5.74;75.89
76086;BME280;64791;0.000;0.000;2023-10-19T06:08:14;93852.72;;;5.94;77.62
76086;BME280;64791;0.000;0.000;2023-10-19T06:10:40;93850.72;;;6.32;79.04
76086;BME280;64791;0.000;0.000;2023-10-19T06:13:06;93847.84;;;6.69;78.04
76086;BME280;64791;0.000;0.000;2023-10-19T06:15:35;93840.22;;;6.94;78.46
76086;BME280;64791;0.000;0.000;2023-10-19T06:18:00;93833.91;;;7.25;77.46
76086;BME280;64791;0.000;0.000;2023-10-19T06:20:26;93841.59;;;7.79;78.00
76086;BME280;64791;0.000;0.000;2023-10-19T06:22:58;93836.81;;;8.26;75.66
76086;BME280;64791;0.000;0.000;2023-10-19T06:25:30;93828.69;;;8.75;74.82
76086;BME280;64791;0.000;0.000;2023-10-19T06:27:56;93829.91;;;9.15;72.89
76086;BME280;64791;0.000;0.000;2023-10-19T06:30:22;93824.22;;;9.41;72.65
76086;BME280;64791;0.000;0.000;2023-10-19T06:32:49;93824.50;;;9.58;73.36
76086;BME280;64791;0.000;0.000;2023-10-19T06:35:16;93819.97;;;9.76;72.75
76086;BME280;64791;0.000;0.000;2023-10-19T06:37:42;93829.22;;;9.94;71.39
76086;BME280;64791;0.000;0.000;2023-10-19T06:40:08;93826.91;;;10.13;72.04
76086;BME280;64791;0.000;0.000;2023-10-19T06:42:33;93825.50;;;10.34;71.13
76086;BME280;64791;0.000;0.000;2023-10-19T06:45:00;93826.84;;;10.48;70.53
76086;BME280;64791;0.000;0.000;2023-10-19T06:47:27;93823.53;;;10.57;69.64
76086;BME280;64791;0.000;0.000;2023-10-19T06:49:54;93820.09;;;10.80;69.68
76086;BME280;64791;0.000;0.000;2023-10-19T06:52:21;93814.78;;;10.89;69.13
76086;BME280;64791;0.000;0.000;2023-10-19T06:54:47;93811.09;;;11.02;68.30
76086;BME280;64791;0.000;0.000;2023-10-19T06:57:12;93817.53;;;11.04;68.72
76086;BME280;64791;0.000;0.000;2023-10-19T06:59:38;93815.47;;;11.05;68.07
76086;BME280;64791;0.000;0.000;2023-10-19T07:02:04;93814.56;;;11.10;68.28
76086;BME280;64791;0.000;0.000;2023-10-19T07:04:30;93823.03;;;11.19;67.63
76086;BME280;64791;0.000;0.000;2023-10-19T07:06:56;93837.19;;;11.31;67.91
76086;BME280;64791;0.000;0.000;2023-10-19T07:09:22;93838.47;;;11.38;67.40
76086;BME280;64791;0.000;0.000;2023-10-19T07:11:49;93843.78;;;11.51;67.36
76086;BME280;64791;0.000;0.000;2023-10-19T07:14:18;93835.84;;;11.62;66.70
76086;BME280;64791;0.000;0.000;2023-10-19T07:16:44;93824.94;;;11.72;67.03
76086;BME280;64791;0.000;0.000;2023-10-19T07:19:10;93823.25;;;11.84;66.37
76086;BME280;64791;0.000;0.000;2023-10-19T07:21:36;93805.66;;;12.04;66.06
76086;BME280;64791;0.000;0.000;2023-10-19T07:24:07;93801.59;;;12.20;65.28
76086;BME280;64791;0.000;0.000;2023-10-19T07:26:35;93795.81;;;12.33;64.65
76086;BME280;64791;0.000;0.000;2023-10-19T07:29:08;93797.63;;;12.63;64.68
76086;BME280;64791;0.000;0.000;2023-10-19T07:31:35;93792.91;;;12.80;65.60
76086;BME280;64791;0.000;0.000;2023-10-19T07:34:01;93797.69;;;13.05;64.89
76086;BME280;64791;0.000;0.000;2023-10-19T07:36:28;93797.88;;;13.24;64.26
76086;BME280;64791;0.000;0.000;2023-10-19T07:38:54;93796.31;;;13.38;63.66
76086;BME280;64791;0.000;0.000;2023-10-19T07:41:20;93792.19;;;13.64;63.31
76086;BME280;64791;0.000;0.000;2023-10-19T07:43:46;93791.84;;;13.77;62.88
76086;BME280;64791;0.000;0.000;2023-10-19T07:46:12;93787.59;;;13.93;61.95
76086;BME280;64791;0.000;0.000;2023-10-19T07:48:38;93794.81;;;14.22;61.95
76086;BME280;64791;0.000;0.000;2023-10-19T07:51:03;93804.66;;;14.50;61.90
76086;BME280;64791;0.000;0.000;2023-10-19T07:53:29;93810.78;;;14.85;61.51
76086;BME280;64791;0.000;0.000;2023-10-19T07:55:55;93814.06;;;15.00;60.96
76086;BME280;64791;0.000;0.000;2023-10-19T07:58:22;93815.72;;;15.13;59.80
76086;BME280;64791;0.000;0.000;2023-10-19T08:00:48;93809.22;;;15.37;59.15
76086;BME280;64791;0.000;0.000;2023-10-19T08:03:13;93814.56;;;15.52;59.01
76086;BME280;64791;0.000;0.000;2023-10-19T08:05:41;93821.97;;;15.40;58.64
76086;BME280;64791;0.000;0.000;2023-10-19T08:08:07;93811.75;;;15.43;58.13
76086;BME280;64791;0.000;0.000;2023-10-19T08:10:34;93814.88;;;15.66;57.23
76086;BME280;64791;0.000;0.000;2023-10-19T08:12:59;93825.09;;;15.73;57.56
76086;BME280;64791;0.000;0.000;2023-10-19T08:15:26;93818.53;;;15.78;57.53
76086;BME280;64791;0.000;0.000;2023-10-19T08:17:54;93822.06;;;15.98;56.57
76086;BME280;64791;0.000;0.000;2023-10-19T08:20:20;93814.47;;;15.79;56.70
76086;BME280;64791;0.000;0.000;2023-10-19T08:22:49;93829.78;;;15.61;56.21
76086;BME280;64791;0.000;0.000;2023-10-19T08:25:15;93831.13;;;15.69;55.63
76086;BME280;64791;0.000;0.000;2023-10-19T08:27:41;93821.63;;;15.72;55.85
76086;BME280;64791;0.000;0.000;2023-10-19T08:30:12;93828.81;;;15.85;55.45
76086;BME280;64791;0.000;0.000;2023-10-19T08:32:41;93829.53;;;16.05;55.17
76086;BME280;64791;0.000;0.000;2023-10-19T08:35:16;93820.28;;;16.31;54.54
76086;BME280;64791;0.000;0.000;2023-10-19T08:37:52;93823.66;;;16.39;54.78
76086;BME280;64791;0.000;0.000;2023-10-19T08:40:18;93825.84;;;16.31;54.69
76086;BME280;64791;0.000;0.000;2023-10-19T08:42:45;93826.28;;;16.46;54.19
76086;BME280;64791;0.000;0.000;2023-10-19T08:45:12;93824.22;;;16.47;52.99
76086;BME280;64791;0.000;0.000;2023-10-19T08:50:14;93822.19;;;17.07;53.00
76086;BME280;64791;0.000;0.000;2023-10-19T08:52:46;93816.38;;;17.33;52.07
76086;BME280;64791;0.000;0.000;2023-10-19T08:55:12;93816.09;;;17.60;51.77
76086;BME280;64791;0.000;0.000;2023-10-19T08:57:39;93830.34;;;17.85;50.83
76086;BME280;64791;0.000;0.000;2023-10-19T09:00:05;93825.63;;;18.09;50.86
76086;BME280;64791;0.000;0.000;2023-10-19T09:02:32;93821.94;;;18.28;50.13
76086;BME280;64791;0.000;0.000;2023-10-19T09:04:58;93821.53;;;18.43;50.59
76086;BME280;64791;0.000;0.000;2023-10-19T09:07:25;93821.97;;;18.39;50.49
76086;BME280;64791;0.000;0.000;2023-10-19T09:09:56;93818.59;;;18.41;49.46
76086;BME280;64791;0.000;0.000;2023-10-19T09:12:22;93811.94;;;18.46;49.22
76086;BME280;64791;0.000;0.000;2023-10-19T09:14:48;93808.13;;;18.74;48.69
76086;BME280;64791;0.000;0.000;2023-10-19T09:17:15;93806.72;;;18.96;47.26
76086;BME280;64791;0.000;0.000;2023-10-19T09:19:44;93800.09;;;19.24;47.75
76086;BME280;64791;0.000;0.000;2023-10-19T09:22:12;93804.81;;;19.45;47.40
76086;BME280;64791;0.000;0.000;2023-10-19T09:24:52;93794.94;;;19.67;47.39
76086;BME280;64791;0.000;0.000;2023-10-19T09:27:21;93793.06;;;19.83;44.99
76086;BME280;64791;0.000;0.000;2023-10-19T09:29:49;93798.88;;;19.99;45.24
76086;BME280;64791;0.000;0.000;2023-10-19T09:32:17;93805.34;;;20.13;44.72
76086;BME280;64791;0.000;0.000;2023-10-19T09:34:45;93792.25;;;20.29;45.39
76086;BME280;64791;0.000;0.000;2023-10-19T09:37:14;93792.44;;;20.45;44.81
76086;BME280;64791;0.000;0.000;2023-10-19T09:39:41;93801.81;;;20.63;44.60
76086;BME280;64791;0.000;0.000;2023-10-19T09:42:09;93794.03;;;20.86;43.22
76086;BME280;64791;0.000;0.000;2023-10-19T09:44:42;93775.81;;;20.99;43.61
76086;BME280;64791;0.000;0.000;2023-10-19T09:47:11;93773.94;;;21.03;42.48
76086;BME280;64791;0.000;0.000;2023-10-19T09:49:39;93753.00;;;21.18;41.67
76086;BME280;64791;0.000;0.000;2023-10-19T09:52:05;93748.13;;;21.46;42.24
76086;BME280;64791;0.000;0.000;2023-10-19T09:55:19;93735.41;;;21.85;39.75
76086;BME280;64791;0.000;0.000;2023-10-19T09:57:21;93714.31;;;21.84;40.27
76086;BME280;64791;0.000;0.000;2023-10-19T09:59:51;93719.72;;;21.80;41.15
76086;BME280;64791;0.000;0.000;2023-10-19T10:02:20;93713.44;;;21.96;39.55
76086;BME280;64791;0.000;0.000;2023-10-19T10:04:47;93709.63;;;21.89;38.77
76086;BME280;64791;0.000;0.000;2023-10-19T10:07:14;93700.16;;;21.82;40.01
76086;BME280;64791;0.000;0.000;2023-10-19T10:09:41;93701.09;;;21.87;40.45
76086;BME280;64791;0.000;0.000;2023-10-19T10:12:21;93691.41;;;21.90;39.23
76086;BME280;64791;0.000;0.000;2023-10-19T10:14:55;93695.28;;;21.56;39.84
76086;BME280;64791;0.000;0.000;2023-10-19T10:17:24;93696.47;;;21.24;39.72
76086;BME280;64791;0.000;0.000;2023-10-19T10:19:53;93699.38;;;21.39;40.48
76086;BME280;64791;0.000;0.000;2023-10-19T10:22:19;93697.59;;;21.32;41.41
76086;BME280;64791;0.000;0.000;2023-10-19T10:24:47;93699.66;;;21.32;40.25
76086;BME280;64791;0.000;0.000;2023-10-19T10:27:16;93699.38;;;21.39;40.76
76086;BME280;64791;0.000;0.000;2023-10-19T10:29:57;93697.19;;;21.65;40.43
76086;BME280;64791;0.000;0.000;2023-10-19T10:32:49;93687.66;;;21.85;39.69
76086;BME280;64791;0.000;0.000;2023-10-19T10:38:00;93694.56;;;22.41;39.75
76086;BME280;64791;0.000;0.000;2023-10-19T10:40:26;93698.03;;;22.55;40.67
76086;BME280;64791;0.000;0.000;2023-10-19T10:43:04;93695.78;;;22.67;37.87
76086;BME280;64791;0.000;0.000;2023-10-19T10:45:30;93676.94;;;22.85;37.92
76086;BME280;64791;0.000;0.000;2023-10-19T10:47:56;93661.59;;;23.04;38.75
76086;BME280;64791;0.000;0.000;2023-10-19T10:50:21;93663.88;;;23.07;36.48
76086;BME280;64791;0.000;0.000;2023-10-19T10:52:47;93670.47;;;23.14;38.40
76086;BME280;64791;0.000;0.000;2023-10-19T10:55:13;93660.78;;;23.17;37.65
76086;BME280;64791;0.000;0.000;2023-10-19T10:57:40;93661.59;;;23.19;36.02
76086;BME280;64791;0.000;0.000;2023-10-19T11:00:06;93649.78;;;23.23;37.16
76086;BME280;64791;0.000;0.000;2023-10-19T11:02:34;93644.13;;;23.38;36.87
76086;BME280;64791;0.000;0.000;2023-10-19T11:04:59;93634.69;;;23.32;36.39
76086;BME280;64791;0.000;0.000;2023-10-19T11:07:25;93630.78;;;23.39;36.50
76086;BME280;64791;0.000;0.000;2023-10-19T11:09:51;93631.41;;;23.37;36.62
76086;BME280;64791;0.000;0.000;2023-10-19T11:12:17;93625.06;;;23.37;36.19
76086;BME280;64791;0.000;0.000;2023-10-19T11:14:57;93628.66;;;23.39;37.27
76086;BME280;64791;0.000;0.000;2023-10-19T11:17:24;93630.84;;;23.41;35.04
76086;BME280;64791;0.000;0.000;2023-10-19T11:19:56;93622.75;;;23.49;37.06
76086;BME280;64791;0.000;0.000;2023-10-19T11:22:26;93604.97;;;23.45;36.15
76086;BME280;64791;0.000;0.000;2023-10-19T11:24:55;93599.41;;;23.47;34.20
76086;BME280;64791;0.000;0.000;2023-10-19T11:27:22;93598.31;;;23.71;35.06
76086;BME280;64791;0.000;0.000;2023-10-19T11:29:58;93587.19;;;23.58;34.60
76086;BME280;64791;0.000;0.000;2023-10-19T11:32:24;93588.88;;;23.47;35.24
76086;BME280;64791;0.000;0.000;2023-10-19T11:34:52;93587.84;;;23.56;36.06
76086;BME280;64791;0.000;0.000;2023-10-19T11:37:17;93587.13;;;23.56;35.33
76086;BME280;64791;0.000;0.000;2023-10-19T11:39:43;93577.84;;;23.53;34.94
76086;BME280;64791;0.000;0.000;2023-10-19T11:42:11;93574.81;;;23.65;34.80
76086;BME280;64791;0.000;0.000;2023-10-19T11:44:38;93568.47;;;23.64;35.71
76086;BME280;64791;0.000;0.000;2023-10-19T11:47:04;93575.06;;;23.71;34.09
76086;BME280;64791;0.000;0.000;2023-10-19T11:49:30;93570.38;;;23.60;34.61
76086;BME280;64791;0.000;0.000;2023-10-19T11:51:56;93567.81;;;23.66;34.33
76086;BME280;64791;0.000;0.000;2023-10-19T11:54:22;93569.81;;;23.63;34.89
76086;BME280;64791;0.000;0.000;2023-10-19T11:56:48;93568.53;;;23.66;35.18
76086;BME280;64791;0.000;0.000;2023-10-19T11:59:14;93563.72;;;23.69;34.87
76086;BME280;64791;0.000;0.000;2023-10-19T12:01:40;93558.16;;;23.71;33.85
76086;BME280;64791;0.000;0.000;2023-10-19T12:04:08;93545.00;;;23.75;35.13
76086;BME280;64791;0.000;0.000;2023-10-19T12:06:34;93547.16;;;23.77;35.19
76086;BME280;64791;0.000;0.000;2023-10-19T12:09:01;93541.53;;;23.77;34.47
76086;BME280;64791;0.000;0.000;2023-10-19T12:11:40;93560.69;;;23.80;35.13
76086;BME280;64791;0.000;0.000;2023-10-19T12:14:06;93552.59;;;23.73;34.47
76086;BME280;64791;0.000;0.000;2023-10-19T12:16:34;93558.72;;;23.67;34.41
76086;BME280;64791;0.000;0.000;2023-10-19T12:19:01;93558.97;;;23.73;35.50
76086;BME280;64791;0.000;0.000;2023-10-19T12:21:26;93554.69;;;23.72;34.70
76086;BME280;64791;0.000;0.000;2023-10-19T12:23:53;93552.25;;;23.80;35.06
76086;BME280;64791;0.000;0.000;2023-10-19T12:26:20;93552.88;;;23.79;34.14
76086;BME280;64791;0.000;0.000;2023-10-19T12:28:46;93550.19;;;23.83;34.25
76086;BME280;64791;0.000;0.000;2023-10-19T12:31:13;93546.50;;;23.78;33.99
76086;BME280;64791;0.000;0.000;2023-10-19T12:33:43;93542.91;;;23.76;34.10
76086;BME280;64791;0.000;0.000;2023-10-19T12:36:10;93547.72;;;23.91;34.04
76086;BME280;64791;0.000;0.000;2023-10-19T12:38:48;93535.06;;;23.92;34.49
76086;BME280;64791;0.000;0.000;2023-10-19T12:41:15;93526.72;;;23.76;34.12
76086;BME280;64791;0.000;0.000;2023-10-19T12:43:41;93522.19;;;23.69;34.33
76086;BME280;64791;0.000;0.000;2023-10-19T12:46:07;93531.28;;;23.68;34.70
76086;BME280;64791;0.000;0.000;2023-10-19T12:48:34;93524.44;;;23.73;34.13
76086;BME280;64791;0.000;0.000;2023-10-19T12:51:03;93521.88;;;23.79;34.48
76086;BME280;64791;0.000;0.000;2023-10-19T12:53:29;93512.22;;;23.84;34.53
76086;BME280;64791;0.000;0.000;2023-10-19T12:55:55;93521.53;;;23.71;34.23
76086;BME280;64791;0.000;0.000;2023-10-19T12:58:21;93517.44;;;23.74;34.15
76086;BME280;64791;0.000;0.000;2023-10-19T13:00:47;93523.50;;;23.84;34.54
76086;BME280;64791;0.000;0.000;2023-10-19T13:03:14;93513.66;;;23.85;34.71
76086;BME280;64791;0.000;0.000;2023-10-19T13:05:42;93506.75;;;23.88;34.49
76086;BME280;64791;0.000;0.000;2023-10-19T13:08:12;93505.88;;;23.83;34.70
76086;BME280;64791;0.000;0.000;2023-10-19T13:10:39;93499.19;;;23.75;34.79
76086;BME280;64791;0.000;0.000;2023-10-19T13:13:08;93503.84;;;23.86;34.45
76086;BME280;64791;0.000;0.000;2023-10-19T13:15:37;93502.72;;;23.93;34.25
76086;BME280;64791;0.000;0.000;2023-10-19T13:18:03;93500.47;;;23.89;34.88
76086;BME280;64791;0.000;0.000;2023-10-19T13:20:32;93492.59;;;23.86;33.84
76086;BME280;64791;0.000;0.000;2023-10-19T13:23:01;93490.63;;;23.73;34.17
76086;BME280;64791;0.000;0.000;2023-10-19T13:25:31;93491.13;;;23.67;35.20
76086;BME280;64791;0.000;0.000;2023-10-19T13:28:16;93491.13;;;23.67;34.53
76086;BME280;64791;0.000;0.000;2023-10-19T13:30:52;93490.81;;;23.77;35.39